Pagrindinis puslapis
METAR-TAF:

METAR-TAF

Oro uostai :

Singapūras, Singapūras

platuma: 01-25-08N, ilguma: 103-51-57E, Aukštis: 11 m

Dabartinis oras

Ataskaita buvo paskelbta 1 valandą ir 9 minutes, ne 18:00 UTC
Vėjas 2 kt iš Šiaurės
Temperatūra 26°C
Drėgmė 84%
Slėgis 1009 hPa
Matomumas 10 km arba daugiau
Mažai debesys ne aukštis 1800 ft
Su prošvaistėmis ne aukštis 16000 ft

METAR: WSSL 251800Z 36002KT 9999 FEW018 BKN160 26/23 Q1009

Laikas: 03:09 (19:09 UTC)

Prognozė

Ataskaita buvo paskelbta 2 valandos ir 9 minutes, ne 17:00 UTC
Prognozė galioja nuo 25 metu 18 UTC su 27 metu 00 UTC
Vėjas 6 kt iš Šiaurės/Šiaurės Rytų
Matomumas 10 km arba daugiau
Mažai debesys ne aukštis 1500 ft
Išsisklaidę debesys ne aukštis 2000 ft
Laikinai
nuo 26 metu 02 UTC su 26 metu 05 UTC
Matomumas: 3000 m
Mažai debesys ne aukštis 1200 ft, Liūtiniai kamuoliniai debesys.
Su prošvaistėmis ne aukštis 1500 ft
perkūnija, lietus

TAF: WSSL 251700Z 2518/2700 02006KT 9999 FEW015 SCT020 TEMPO 2602/2605 3000 TSRA FEW012CB BKN015

Orai ataskaitas ir orų prognozės (METAR, TAF).

turimą stotys yra geltonos ir raudonos taškus žemėlapyje.

Perkelti pele per norėdami pamatyti stoties vardą.

Tada spustelėkite, norėdami matyti oro stebėjimo ir prognozės.

Norėdami pakeisti žemėlapį: spustelėkite ant žalios mygtukų su juodo kryžiaus žemyn,; žalią mygtuką su brūkšneliu, jei norite nutolinti; arba žalių rodyklių gretimoms žemėlapius.


METAR-TAF: